createdAt,value
2022-12-19T00:01:39.409Z,5.72
2022-12-19T00:04:09.088Z,5.70
2022-12-19T00:06:38.089Z,5.76
2022-12-19T00:09:11.362Z,5.79
2022-12-19T00:11:38.938Z,5.75
2022-12-19T00:14:06.510Z,5.79
2022-12-19T00:16:33.516Z,5.72
2022-12-19T00:19:01.526Z,5.76
2022-12-19T00:21:31.204Z,5.68
2022-12-19T00:24:01.765Z,5.71
2022-12-19T00:26:31.120Z,5.72
2022-12-19T00:29:11.179Z,5.77
2022-12-19T00:31:40.870Z,5.72
2022-12-19T00:34:07.661Z,5.71
2022-12-19T00:36:34.858Z,5.70
2022-12-19T00:39:07.998Z,5.71
2022-12-19T00:41:37.595Z,5.66
2022-12-19T00:44:12.281Z,5.65
2022-12-19T00:46:43.912Z,5.64
2022-12-19T00:49:16.507Z,5.65
2022-12-19T00:51:43.145Z,5.65
2022-12-19T00:54:10.792Z,5.69
2022-12-19T00:56:38.608Z,5.67
2022-12-19T00:59:08.951Z,5.69
2022-12-19T01:01:38.287Z,5.77
2022-12-19T01:06:54.127Z,5.79
2022-12-19T01:09:24.884Z,5.82
2022-12-19T01:12:10.678Z,5.79
2022-12-19T01:14:37.444Z,5.77
2022-12-19T01:17:04.087Z,5.79
2022-12-19T01:19:30.748Z,5.77
2022-12-19T01:21:57.390Z,5.76
2022-12-19T01:24:24.643Z,5.76
2022-12-19T01:26:51.320Z,5.76
2022-12-19T01:29:18.074Z,5.77
2022-12-19T01:31:44.788Z,5.80
2022-12-19T01:34:11.643Z,5.84
2022-12-19T01:36:40.205Z,5.82
2022-12-19T01:39:08.194Z,5.85
2022-12-19T01:41:35.822Z,5.86
2022-12-19T01:44:08.351Z,5.90
2022-12-19T01:46:43.230Z,5.91
2022-12-19T01:49:26.242Z,5.93
2022-12-19T01:51:56.270Z,5.88
2022-12-19T01:54:34.639Z,5.88
2022-12-19T01:57:04.204Z,5.93
2022-12-19T01:59:52.131Z,5.95
2022-12-19T02:02:23.548Z,5.96
2022-12-19T02:04:50.319Z,5.90
2022-12-19T02:07:20.365Z,5.86
2022-12-19T02:09:56.788Z,5.85
2022-12-19T02:12:28.031Z,5.86
2022-12-19T02:14:57.407Z,5.85
2022-12-19T02:17:52.815Z,5.84
2022-12-19T02:21:01.220Z,5.87
2022-12-19T02:23:58.268Z,5.86
2022-12-19T02:26:53.515Z,5.89
2022-12-19T02:29:35.639Z,5.90
2022-12-19T02:32:14.140Z,5.94
2022-12-19T02:34:50.479Z,5.95
2022-12-19T02:37:27.186Z,5.97
2022-12-19T02:40:14.958Z,6.03
2022-12-19T02:42:50.337Z,6.07
2022-12-19T02:45:28.469Z,6.11
2022-12-19T02:48:03.292Z,6.13
2022-12-19T02:50:44.704Z,6.14
2022-12-19T02:53:15.943Z,6.10
2022-12-19T02:56:21.411Z,6.09
2022-12-19T02:59:03.999Z,6.13
2022-12-19T03:02:14.057Z,6.18
2022-12-19T03:05:12.975Z,6.17
2022-12-19T03:07:52.726Z,6.13
2022-12-19T03:11:05.842Z,6.13
2022-12-19T03:13:38.354Z,6.12
2022-12-19T03:16:09.471Z,6.10
2022-12-19T03:18:36.589Z,6.13
2022-12-19T03:21:21.386Z,6.11
2022-12-19T03:23:50.516Z,6.11
2022-12-19T03:26:20.874Z,6.09
2022-12-19T03:29:09.598Z,6.08
2022-12-19T03:31:39.545Z,6.07
2022-12-19T03:34:21.296Z,6.08
2022-12-19T03:36:55.685Z,6.05
2022-12-19T03:39:25.160Z,6.06
2022-12-19T03:42:12.142Z,6.09
2022-12-19T03:44:42.497Z,6.12
2022-12-19T03:47:21.080Z,6.15
2022-12-19T03:49:48.670Z,6.18
2022-12-19T03:52:33.356Z,6.19
2022-12-19T03:55:43.208Z,6.21
2022-12-19T03:58:14.281Z,6.22
2022-12-19T04:00:43.803Z,6.25
2022-12-19T04:03:13.849Z,6.25
2022-12-19T04:05:42.543Z,6.29
2022-12-19T04:08:12.043Z,6.28
2022-12-19T04:10:47.189Z,6.29
2022-12-19T04:13:19.969Z,6.29
2022-12-19T04:16:19.348Z,6.30
2022-12-19T04:18:51.310Z,6.29
2022-12-19T04:21:26.098Z,6.30
2022-12-19T04:23:58.063Z,6.31
2022-12-19T04:26:26.594Z,6.36
2022-12-19T04:28:56.656Z,6.41
2022-12-19T04:31:23.941Z,6.43
2022-12-19T04:33:50.737Z,6.45
2022-12-19T04:36:17.690Z,6.48
2022-12-19T04:38:44.367Z,6.45
2022-12-19T04:41:11.235Z,6.47
2022-12-19T04:43:38.972Z,6.48
2022-12-19T04:46:05.843Z,6.50
2022-12-19T04:48:38.209Z,6.52
2022-12-19T04:51:05.382Z,6.53
2022-12-19T04:53:32.633Z,6.56
2022-12-19T04:56:04.773Z,6.61
2022-12-19T04:58:31.709Z,6.65
2022-12-19T05:01:06.956Z,6.64
2022-12-19T05:03:34.433Z,6.65
2022-12-19T05:06:09.770Z,6.67
2022-12-19T05:08:38.622Z,6.69
2022-12-19T05:11:06.932Z,6.66
2022-12-19T05:13:33.728Z,6.67
2022-12-19T05:16:03.062Z,6.66
2022-12-19T05:18:31.084Z,6.67
2022-12-19T05:20:57.768Z,6.67
2022-12-19T05:23:24.893Z,6.68
2022-12-19T05:25:51.970Z,6.69
2022-12-19T05:28:19.423Z,6.67
2022-12-19T05:30:51.937Z,6.68
2022-12-19T05:33:19.115Z,6.71
2022-12-19T05:35:45.868Z,6.70
2022-12-19T05:38:12.634Z,6.71
2022-12-19T05:40:39.296Z,6.73
2022-12-19T05:43:09.569Z,6.73
2022-12-19T05:45:36.254Z,6.73
2022-12-19T05:48:03.505Z,6.74
2022-12-19T05:50:30.491Z,6.73
2022-12-19T05:53:08.692Z,6.73
2022-12-19T05:55:35.392Z,6.78
2022-12-19T05:58:02.138Z,6.77
2022-12-19T06:00:28.915Z,6.79
2022-12-19T06:02:55.688Z,6.82
2022-12-19T06:05:22.659Z,6.82
2022-12-19T06:07:50.574Z,6.81
2022-12-19T06:10:18.012Z,6.83
2022-12-19T06:12:44.637Z,6.85
2022-12-19T06:15:12.014Z,6.83
2022-12-19T06:17:38.675Z,6.86
2022-12-19T06:20:06.706Z,6.86
2022-12-19T06:22:37.836Z,6.83
2022-12-19T06:25:05.138Z,6.87
2022-12-19T06:27:33.838Z,6.86
2022-12-19T06:30:00.524Z,6.89
2022-12-19T06:32:27.177Z,6.89
2022-12-19T06:35:09.467Z,6.91
2022-12-19T06:37:39.329Z,6.94
2022-12-19T06:40:07.055Z,6.95
2022-12-19T06:42:33.723Z,6.95
2022-12-19T06:45:00.515Z,6.93
2022-12-19T06:47:27.192Z,6.93
2022-12-19T06:49:53.892Z,6.94
2022-12-19T06:52:20.699Z,6.97
2022-12-19T06:54:50.235Z,6.99
2022-12-19T06:57:16.986Z,6.96
2022-12-19T06:59:43.760Z,6.99
2022-12-19T07:02:13.502Z,7.02
2022-12-19T07:04:52.899Z,7.07
2022-12-19T07:07:19.840Z,7.05
2022-12-19T07:09:46.549Z,7.06
2022-12-19T07:12:13.274Z,7.06
2022-12-19T07:14:40.029Z,7.07
2022-12-19T07:17:06.877Z,7.10
2022-12-19T07:19:35.125Z,7.13
2022-12-19T07:22:03.569Z,7.18
2022-12-19T07:24:30.694Z,7.13
2022-12-19T07:26:57.874Z,7.16
2022-12-19T07:29:24.580Z,7.21
2022-12-19T07:31:51.538Z,7.21
2022-12-19T07:34:18.268Z,7.23
2022-12-19T07:36:45.012Z,7.27
2022-12-19T07:39:12.719Z,7.28
2022-12-19T07:41:41.349Z,7.33
2022-12-19T07:44:08.740Z,7.35
2022-12-19T07:46:35.638Z,7.39
2022-12-19T07:49:02.844Z,7.40
2022-12-19T07:51:29.721Z,7.42
2022-12-19T07:53:56.688Z,7.43
2022-12-19T07:56:23.465Z,7.46
2022-12-19T07:58:51.705Z,7.47
2022-12-19T08:01:18.950Z,7.52
2022-12-19T08:03:45.904Z,7.51
2022-12-19T08:06:12.560Z,7.56
2022-12-19T08:08:39.450Z,7.62
2022-12-19T08:11:17.558Z,7.66
2022-12-19T08:13:47.027Z,7.67
2022-12-19T08:16:14.952Z,7.67
2022-12-19T08:18:41.791Z,7.66
2022-12-19T08:21:09.336Z,7.69
2022-12-19T08:23:36.200Z,7.68
2022-12-19T08:26:06.094Z,7.68
2022-12-19T08:28:34.377Z,7.72
2022-12-19T08:31:07.214Z,7.76
2022-12-19T08:33:34.073Z,7.78
2022-12-19T08:36:08.178Z,7.78
2022-12-19T08:38:35.758Z,7.77
2022-12-19T08:41:02.615Z,7.77
2022-12-19T08:43:30.620Z,7.78
2022-12-19T08:45:57.559Z,7.84
2022-12-19T08:48:24.480Z,7.83
2022-12-19T08:50:59.445Z,7.84
2022-12-19T08:53:28.283Z,7.84
2022-12-19T08:55:56.842Z,7.87
2022-12-19T08:58:25.913Z,7.92
2022-12-19T09:00:57.644Z,7.91
2022-12-19T09:03:42.772Z,7.94
2022-12-19T09:06:18.645Z,7.95
2022-12-19T09:08:46.865Z,7.97
2022-12-19T09:11:16.080Z,8.00
2022-12-19T09:13:43.757Z,8.02
2022-12-19T09:16:13.598Z,8.04
2022-12-19T09:18:48.011Z,8.05
2022-12-19T09:21:15.649Z,8.04
2022-12-19T09:23:43.182Z,8.12
2022-12-19T09:26:13.299Z,8.13
2022-12-19T09:28:41.876Z,8.18
2022-12-19T09:31:13.950Z,8.24
2022-12-19T09:33:43.674Z,8.26
2022-12-19T09:36:14.044Z,8.32
2022-12-19T09:38:41.945Z,8.34
2022-12-19T09:41:40.971Z,8.36
2022-12-19T09:44:45.633Z,8.36
2022-12-19T09:47:17.640Z,8.37
2022-12-19T09:49:46.430Z,8.36
2022-12-19T09:52:33.204Z,8.45
2022-12-19T09:55:28.565Z,8.45
2022-12-19T09:58:12.300Z,8.45
2022-12-19T10:00:56.474Z,8.48
2022-12-19T10:03:41.607Z,8.55
2022-12-19T10:07:16.110Z,8.60
2022-12-19T10:10:44.979Z,8.63
2022-12-19T10:12:47.994Z,8.69
2022-12-19T10:15:06.268Z,8.77
2022-12-19T10:17:45.196Z,8.83
2022-12-19T10:20:24.417Z,8.93
2022-12-19T10:23:29.326Z,8.96
2022-12-19T10:26:09.736Z,8.98
2022-12-19T10:28:37.623Z,8.98
2022-12-19T10:31:22.060Z,8.97
2022-12-19T10:34:00.064Z,8.98
2022-12-19T10:36:49.142Z,8.94
2022-12-19T10:39:30.089Z,8.94
2022-12-19T10:42:04.632Z,8.92
2022-12-19T10:44:36.472Z,8.88
2022-12-19T10:47:04.593Z,8.87
2022-12-19T10:49:31.733Z,8.84
2022-12-19T10:51:59.169Z,8.82
2022-12-19T10:54:37.812Z,8.86
2022-12-19T10:57:25.556Z,8.86
2022-12-19T11:00:00.991Z,8.91
2022-12-19T11:02:40.075Z,8.93
2022-12-19T11:05:29.494Z,8.94
2022-12-19T11:08:27.398Z,8.99
2022-12-19T11:13:09.538Z,9.00
2022-12-19T11:18:22.304Z,9.01
2022-12-19T11:23:19.380Z,8.99
2022-12-19T11:29:33.479Z,9.00
2022-12-19T11:29:39.075Z,9.01
2022-12-19T11:30:44.320Z,9.01
2022-12-19T11:30:46.773Z,9.03
2022-12-19T11:34:18.328Z,9.09
2022-12-19T11:36:58.217Z,9.10
2022-12-19T11:39:44.635Z,9.09
2022-12-19T11:42:17.074Z,9.10
2022-12-19T11:44:51.144Z,9.11
2022-12-19T11:47:43.225Z,9.17
2022-12-19T11:50:15.574Z,9.18
2022-12-19T11:53:11.519Z,9.22
2022-12-19T11:55:42.546Z,9.31
2022-12-19T11:58:13.247Z,9.34
2022-12-19T12:01:21.357Z,9.36
2022-12-19T12:04:02.779Z,9.37
2022-12-19T12:06:35.373Z,9.40
2022-12-19T12:12:21.854Z,9.45
2022-12-19T12:18:13.937Z,9.49
2022-12-19T12:27:35.090Z,9.46
2022-12-19T12:31:17.720Z,9.47
2022-12-19T12:31:23.833Z,9.52
2022-12-19T12:31:32.537Z,9.48
2022-12-19T12:31:49.210Z,9.52
2022-12-19T12:32:03.194Z,9.51
2022-12-19T12:35:34.977Z,9.49
2022-12-19T12:39:46.773Z,9.42
2022-12-19T12:42:23.796Z,9.43
2022-12-19T12:44:54.896Z,9.43
2022-12-19T12:47:27.599Z,9.46
2022-12-19T12:49:56.251Z,9.48
2022-12-19T12:52:40.459Z,9.50
2022-12-19T12:55:23.930Z,9.51
2022-12-19T12:57:51.082Z,9.52
2022-12-19T13:00:28.721Z,9.52
2022-12-19T13:03:19.371Z,9.51
2022-12-19T13:05:46.094Z,9.51
2022-12-19T13:08:37.390Z,9.54
2022-12-19T13:11:11.693Z,9.51
2022-12-19T13:13:55.790Z,9.54
2022-12-19T13:16:45.610Z,9.52
2022-12-19T13:19:28.708Z,9.50
2022-12-19T13:22:05.091Z,9.50
2022-12-19T13:24:41.881Z,9.51
2022-12-19T13:27:21.014Z,9.51
2022-12-19T13:29:56.826Z,9.51
2022-12-19T13:32:24.124Z,9.51
2022-12-19T13:34:58.638Z,9.52
2022-12-19T13:39:57.352Z,9.55
2022-12-19T13:40:44.429Z,9.60
2022-12-19T13:43:35.815Z,9.60
2022-12-19T13:46:20.886Z,9.60
2022-12-19T13:48:51.351Z,9.66
2022-12-19T13:51:18.163Z,9.67
2022-12-19T13:53:45.003Z,9.66
2022-12-19T13:56:19.788Z,9.68
2022-12-19T13:58:54.685Z,9.68
2022-12-19T14:01:29.221Z,9.66
2022-12-19T14:03:59.058Z,9.68
2022-12-19T14:06:46.926Z,9.70
2022-12-19T14:11:34.236Z,9.70
2022-12-19T14:14:00.336Z,9.72
2022-12-19T14:15:39.920Z,9.72
2022-12-19T14:18:45.125Z,9.71
2022-12-19T14:22:08.918Z,9.70
2022-12-19T14:24:14.414Z,9.70
2022-12-19T14:28:19.528Z,9.72
2022-12-19T14:30:27.441Z,9.71
2022-12-19T14:33:45.635Z,9.70
2022-12-19T14:36:07.516Z,9.72
2022-12-19T14:39:23.329Z,9.76
2022-12-19T14:41:46.942Z,9.76
2022-12-19T14:51:42.964Z,9.77
2022-12-19T14:52:10.951Z,9.78
2022-12-19T14:54:02.814Z,9.77
2022-12-19T14:54:48.108Z,9.76
2022-12-19T14:56:16.097Z,9.76
2022-12-19T14:58:55.530Z,9.71
2022-12-19T15:01:29.970Z,9.70
2022-12-19T15:04:48.775Z,9.67
2022-12-19T15:07:06.901Z,9.67
2022-12-19T15:11:00.842Z,9.66
2022-12-19T15:14:54.392Z,9.67
2022-12-19T15:16:31.520Z,9.64
2022-12-19T15:19:00.781Z,9.64
2022-12-19T15:21:32.055Z,9.63
2022-12-19T15:23:58.664Z,9.63
2022-12-19T15:26:31.290Z,9.64
2022-12-19T15:28:58.678Z,9.65
2022-12-19T15:31:41.633Z,9.63
2022-12-19T15:34:35.504Z,9.63
2022-12-19T15:37:05.033Z,9.63
2022-12-19T15:39:31.932Z,9.64
2022-12-19T15:42:00.479Z,9.64
2022-12-19T15:44:39.583Z,9.67
2022-12-19T15:47:15.898Z,9.66
2022-12-19T15:49:42.769Z,9.64
2022-12-19T15:52:19.435Z,9.67
2022-12-19T15:54:48.386Z,9.67
2022-12-19T15:57:30.674Z,9.67
2022-12-19T16:00:01.682Z,9.67
2022-12-19T16:03:04.520Z,9.70
2022-12-19T16:05:23.555Z,9.69
2022-12-19T16:07:50.948Z,9.68
2022-12-19T16:10:18.220Z,9.65
2022-12-19T16:12:50.600Z,9.64
2022-12-19T16:15:29.597Z,9.67
2022-12-19T16:17:58.198Z,9.73
2022-12-19T16:20:28.032Z,9.73
2022-12-19T16:22:55.348Z,9.73
2022-12-19T16:25:24.941Z,9.78
2022-12-19T16:27:58.359Z,9.82
2022-12-19T16:30:31.566Z,9.84
2022-12-19T16:32:58.887Z,9.86
2022-12-19T16:36:02.281Z,9.82
2022-12-19T16:38:16.620Z,9.79
2022-12-19T16:40:43.556Z,9.78
2022-12-19T16:43:28.365Z,9.74
2022-12-19T16:46:00.572Z,9.70
2022-12-19T16:48:34.082Z,9.66
2022-12-19T16:51:01.398Z,9.69
2022-12-19T16:53:28.091Z,9.67
2022-12-19T16:55:56.821Z,9.64
2022-12-19T16:58:26.403Z,9.67
2022-12-19T17:00:55.199Z,9.71
2022-12-19T17:03:36.107Z,9.69
2022-12-19T17:06:03.694Z,9.70
2022-12-19T17:08:30.341Z,9.69
2022-12-19T17:10:57.013Z,9.67
2022-12-19T17:13:24.287Z,9.71
2022-12-19T17:15:56.741Z,9.70
2022-12-19T17:18:34.377Z,9.74
2022-12-19T17:21:01.696Z,9.73
2022-12-19T17:23:30.720Z,9.73
2022-12-19T17:25:59.410Z,9.72
2022-12-19T17:28:28.133Z,9.70
2022-12-19T17:30:58.801Z,9.67
2022-12-19T17:33:33.157Z,9.67
2022-12-19T17:36:05.072Z,9.71
2022-12-19T17:38:31.852Z,9.72
2022-12-19T17:40:59.059Z,9.71
2022-12-19T17:43:25.896Z,9.68
2022-12-19T17:45:52.839Z,9.70
2022-12-19T17:48:24.159Z,9.69
2022-12-19T17:50:51.350Z,9.72
2022-12-19T17:53:18.516Z,9.71
2022-12-19T17:55:48.602Z,9.72
2022-12-19T17:58:15.515Z,9.72
2022-12-19T18:00:43.254Z,9.66
2022-12-19T18:03:19.823Z,9.63
2022-12-19T18:05:47.802Z,9.64
2022-12-19T18:08:29.254Z,9.63
2022-12-19T18:10:57.120Z,9.61
2022-12-19T18:13:25.357Z,9.58
2022-12-19T18:15:56.157Z,9.52
2022-12-19T18:18:35.319Z,9.52
2022-12-19T18:21:03.088Z,9.56
2022-12-19T18:23:32.987Z,9.77
2022-12-19T18:26:02.300Z,9.82
2022-12-19T18:28:29.675Z,9.80
2022-12-19T18:31:03.032Z,9.78
2022-12-19T18:33:37.815Z,9.80
2022-12-19T18:36:07.471Z,9.75
2022-12-19T18:38:34.448Z,9.75
2022-12-19T18:41:01.552Z,9.72
2022-12-19T18:43:31.083Z,9.71
2022-12-19T18:45:58.295Z,9.68
2022-12-19T18:48:31.425Z,9.67
2022-12-19T18:50:59.418Z,9.65
2022-12-19T18:53:35.164Z,9.65
2022-12-19T18:56:05.062Z,9.60
2022-12-19T18:58:32.409Z,9.57
2022-12-19T19:01:00.972Z,9.55
2022-12-19T19:03:34.276Z,9.57
2022-12-19T19:06:01.395Z,9.58
2022-12-19T19:08:30.768Z,9.59
2022-12-19T19:11:18.227Z,9.63
2022-12-19T19:13:45.132Z,9.75
2022-12-19T19:16:24.663Z,9.72
2022-12-19T19:18:56.650Z,9.78
2022-12-19T19:21:26.633Z,9.79
2022-12-19T19:24:04.162Z,9.77
2022-12-19T19:26:30.891Z,9.73
2022-12-19T19:28:58.433Z,9.73
2022-12-19T19:31:27.958Z,9.67
2022-12-19T19:34:11.423Z,9.59
2022-12-19T19:36:40.981Z,9.55
2022-12-19T19:39:07.748Z,9.48
2022-12-19T19:41:34.501Z,9.39
2022-12-19T19:44:01.410Z,9.33
2022-12-19T19:46:28.661Z,9.31
2022-12-19T19:48:55.772Z,9.26
2022-12-19T19:51:22.455Z,9.26
2022-12-19T19:53:49.271Z,9.21
2022-12-19T19:56:16.147Z,9.10
2022-12-19T19:58:42.859Z,8.95
2022-12-19T20:01:11.567Z,8.87
2022-12-19T20:03:40.125Z,8.78
2022-12-19T20:06:08.198Z,8.76
2022-12-19T20:08:39.808Z,8.61
2022-12-19T20:11:08.448Z,8.48
2022-12-19T20:13:35.241Z,8.41
2022-12-19T20:16:10.466Z,8.35
2022-12-19T20:18:38.771Z,8.29
2022-12-19T20:21:12.762Z,8.25
2022-12-19T20:23:42.559Z,8.18
2022-12-19T20:26:11.492Z,8.11
2022-12-19T20:28:43.931Z,8.10
2022-12-19T20:31:14.984Z,7.96
2022-12-19T20:33:41.786Z,7.88
2022-12-19T20:36:11.236Z,7.85
2022-12-19T20:38:38.827Z,7.80
2022-12-19T20:41:06.120Z,7.71
2022-12-19T20:43:33.755Z,7.69
2022-12-19T20:46:06.190Z,7.62
2022-12-19T20:48:33.189Z,7.54
2022-12-19T20:51:01.341Z,7.48
2022-12-19T20:53:28.258Z,7.39
2022-12-19T20:55:58.316Z,7.36
2022-12-19T20:58:27.194Z,7.32
2022-12-19T21:01:08.017Z,7.22
2022-12-19T21:03:36.292Z,7.19
2022-12-19T21:06:03.567Z,7.06
2022-12-19T21:08:30.426Z,7.11
2022-12-19T21:10:57.267Z,7.01
2022-12-19T21:13:24.136Z,6.95
2022-12-19T21:15:59.275Z,6.88
2022-12-19T21:18:26.869Z,6.83
2022-12-19T21:20:54.546Z,6.68
2022-12-19T21:23:22.730Z,6.59
2022-12-19T21:25:49.637Z,6.52
2022-12-19T21:28:16.396Z,6.40
2022-12-19T21:30:43.126Z,6.31
2022-12-19T21:33:09.914Z,6.30
2022-12-19T21:35:38.114Z,6.24
2022-12-19T21:38:04.896Z,6.20
2022-12-19T21:40:31.614Z,6.20
2022-12-19T21:42:58.331Z,6.16
2022-12-19T21:45:25.048Z,6.16
2022-12-19T21:47:51.816Z,6.14
2022-12-19T21:50:18.673Z,6.17
2022-12-19T21:52:45.370Z,6.15
2022-12-19T21:55:12.107Z,6.15
2022-12-19T21:57:40.370Z,6.11
2022-12-19T22:00:09.981Z,6.06
2022-12-19T22:02:37.235Z,5.97
2022-12-19T22:05:04.716Z,5.93
2022-12-19T22:07:35.512Z,5.91
2022-12-19T22:10:02.348Z,5.82
2022-12-19T22:12:29.179Z,5.77
2022-12-19T22:14:55.938Z,5.69
2022-12-19T22:17:22.942Z,5.66
2022-12-19T22:19:49.685Z,5.63
2022-12-19T22:22:16.383Z,5.57
2022-12-19T22:24:43.081Z,5.51
2022-12-19T22:27:09.872Z,5.45
2022-12-19T22:29:37.957Z,5.46
2022-12-19T22:32:05.286Z,5.46
2022-12-19T22:34:32.201Z,5.41
2022-12-19T22:36:58.982Z,5.42
2022-12-19T22:39:25.714Z,5.41
2022-12-19T22:41:52.457Z,5.49
2022-12-19T22:44:22.103Z,5.41
2022-12-19T22:46:49.639Z,5.43
2022-12-19T22:49:19.342Z,5.33
2022-12-19T22:51:46.179Z,5.26
2022-12-19T22:54:13.652Z,5.19
2022-12-19T22:56:41.007Z,5.08
2022-12-19T22:59:10.187Z,5.04
2022-12-19T23:01:39.913Z,5.06
2022-12-19T23:04:08.808Z,5.05
2022-12-19T23:06:37.180Z,5.07
2022-12-19T23:09:06.230Z,5.15
2022-12-19T23:11:39.278Z,5.11
2022-12-19T23:14:08.285Z,5.22
2022-12-19T23:16:37.410Z,5.28
2022-12-19T23:19:05.551Z,5.19
2022-12-19T23:21:32.241Z,5.21
2022-12-19T23:23:58.959Z,5.26
2022-12-19T23:26:28.767Z,5.18
2022-12-19T23:28:58.391Z,5.06
2022-12-19T23:31:26.488Z,5.01
2022-12-19T23:33:53.843Z,4.94
2022-12-19T23:36:45.287Z,4.85
2022-12-19T23:39:08.175Z,4.77
2022-12-19T23:41:34.823Z,4.67
2022-12-19T23:44:01.777Z,4.59
2022-12-19T23:46:28.879Z,4.57
2022-12-19T23:48:56.335Z,4.52
2022-12-19T23:51:25.263Z,4.49
2022-12-19T23:53:53.473Z,4.54
2022-12-19T23:56:26.054Z,4.47
2022-12-19T23:58:53.275Z,4.44
